Riverside, Missouri
Current Conditions -  °F | °C
As of 6:54 PM on Wednesday 22 Oct 2014 (Local Time) from KMKC Reporting Station
Clear Clear  
Wind Chill: 69°   Ceiling: Unl
Heat Index: 69°   Visibility: 10mi
Dew Point: 53°   Wind: 8mph
Humidity: 57%   Direction: 120°ESE
Pressure: 30.09"   Gusts: NA
Location:  39.18°N, 94.61°W
Report Text: KMKC 222354Z 12007KT 10SM CLR 21/12 A3009 RMK AO2 SLP187 T02060117 10239 20206 52001
Loading
Personal Weather Stations






























Interactive Weather Map
Tropical Storm Tracking
New forecast layout! Learn more

10-Day Weather Forecast

Advertisements
Track Severe Weather on mobile